Terminal Aerodrome Forecast
Issued by NWS Cleveland, OH

Home | Current Version | Previous Version | Graphics & Text | Print | Product List | Glossary Off
Versions: 1 2 3 4 5 6 7 8 9 10 11 12 13 14 15 16 17 18 19 20 21 22 23 24 25 26 27 28

675
FTUS41 KCLE 131128
TAFCLE
TAF
KCLE 131128Z 1312/1418 30012G22KT P6SM -SHSN OVC035
      TEMPO 1312/1315 3SM -SHSN OVC025
     FM132100 29012KT P6SM BKN035
     FM140100 29006KT P6SM BKN070=

USA.gov is the U.S. government's official web portal to all federal, state and local government web resources and services.